createdAt,value
2023-12-14T00:00:19.467Z,996.51
2023-12-14T00:00:49.535Z,996.52
2023-12-14T00:01:19.577Z,996.52
2023-12-14T00:01:49.511Z,996.53
2023-12-14T00:02:19.537Z,996.53
2023-12-14T00:02:49.454Z,996.53
2023-12-14T00:03:19.443Z,996.55
2023-12-14T00:03:49.461Z,996.56
2023-12-14T00:04:19.498Z,996.57
2023-12-14T00:04:52.466Z,996.59
2023-12-14T00:05:37.624Z,996.60
2023-12-14T00:05:49.484Z,996.60
2023-12-14T00:06:19.523Z,996.63
2023-12-14T00:06:49.432Z,996.63
2023-12-14T00:07:19.382Z,996.65
2023-12-14T00:07:49.423Z,996.66
2023-12-14T00:08:19.394Z,996.67
2023-12-14T00:08:49.408Z,996.67
2023-12-14T00:09:19.412Z,996.67
2023-12-14T00:09:49.373Z,996.67
2023-12-14T00:10:19.376Z,996.70
2023-12-14T00:10:52.390Z,996.71
2023-12-14T00:11:37.477Z,996.72
2023-12-14T00:11:49.343Z,996.73
2023-12-14T00:12:19.336Z,996.73
2023-12-14T00:12:49.317Z,996.74
2023-12-14T00:13:19.381Z,996.75
2023-12-14T00:13:49.339Z,996.77
2023-12-14T00:14:19.352Z,996.76
2023-12-14T00:14:49.328Z,996.77
2023-12-14T00:15:19.313Z,996.80
2023-12-14T00:15:49.308Z,996.79
2023-12-14T00:16:19.318Z,996.80
2023-12-14T00:16:52.368Z,996.82
2023-12-14T00:17:37.415Z,996.83
2023-12-14T00:17:49.359Z,996.82
2023-12-14T00:18:19.338Z,996.82
2023-12-14T00:18:49.314Z,996.82
2023-12-14T00:19:19.257Z,996.82
2023-12-14T00:19:49.330Z,996.83
2023-12-14T00:20:19.331Z,996.82
2023-12-14T00:20:49.287Z,996.83
2023-12-14T00:21:19.246Z,996.84
2023-12-14T00:21:49.241Z,996.83
2023-12-14T00:22:19.221Z,996.83
2023-12-14T00:22:52.281Z,996.83
2023-12-14T00:23:37.354Z,996.84
2023-12-14T00:23:49.364Z,996.84
2023-12-14T00:24:19.212Z,996.84
2023-12-14T00:24:49.204Z,996.85
2023-12-14T00:25:19.254Z,996.84
2023-12-14T00:25:49.247Z,996.85
2023-12-14T00:26:19.280Z,996.84
2023-12-14T00:26:49.177Z,996.86
2023-12-14T00:27:19.171Z,996.88
2023-12-14T00:27:49.162Z,996.89
2023-12-14T00:28:19.159Z,996.91
2023-12-14T00:29:00.394Z,996.91
2023-12-14T00:29:37.267Z,996.93
2023-12-14T00:29:49.161Z,996.93
2023-12-14T00:30:19.208Z,996.94
2023-12-14T00:30:49.167Z,996.96
2023-12-14T00:31:19.141Z,996.96
2023-12-14T00:31:49.156Z,996.97
2023-12-14T00:32:19.131Z,996.99
2023-12-14T00:32:49.171Z,996.99
2023-12-14T00:33:19.156Z,997.01
2023-12-14T00:33:49.212Z,997.03
2023-12-14T00:34:19.096Z,997.03
2023-12-14T00:34:52.171Z,997.04
2023-12-14T00:35:37.211Z,997.06
2023-12-14T00:35:49.130Z,997.07
2023-12-14T00:36:19.083Z,997.09
2023-12-14T00:36:49.158Z,997.09
2023-12-14T00:37:19.065Z,997.10
2023-12-14T00:37:49.111Z,997.09
2023-12-14T00:38:19.043Z,997.09
2023-12-14T00:38:49.067Z,997.10
2023-12-14T00:39:19.065Z,997.11
2023-12-14T00:39:49.049Z,997.11
2023-12-14T00:40:19.029Z,997.12
2023-12-14T00:40:52.106Z,997.13
2023-12-14T00:41:37.164Z,997.14
2023-12-14T00:41:49.028Z,997.15
2023-12-14T00:42:19.021Z,997.14
2023-12-14T00:42:49.003Z,997.14
2023-12-14T00:43:19.259Z,997.16
2023-12-14T00:43:49.038Z,997.17
2023-12-14T00:44:19.098Z,997.18
2023-12-14T00:44:48.989Z,997.18
2023-12-14T00:45:18.979Z,997.20
2023-12-14T00:45:48.976Z,997.20
2023-12-14T00:46:18.968Z,997.21
2023-12-14T00:46:52.163Z,997.24
2023-12-14T00:47:37.691Z,997.25
2023-12-14T00:47:49.201Z,997.25
2023-12-14T00:48:18.984Z,997.26
2023-12-14T00:48:49.093Z,997.28
2023-12-14T00:49:18.935Z,997.30
2023-12-14T00:49:49.047Z,997.30
2023-12-14T00:50:18.916Z,997.33
2023-12-14T00:50:48.936Z,997.33
2023-12-14T00:51:18.926Z,997.33
2023-12-14T00:51:48.934Z,997.36
2023-12-14T00:52:18.911Z,997.36
2023-12-14T00:52:52.000Z,997.37
2023-12-14T00:53:37.213Z,997.41
2023-12-14T00:53:48.885Z,997.39
2023-12-14T00:54:18.948Z,997.40
2023-12-14T00:54:48.874Z,997.43
2023-12-14T00:55:18.877Z,997.44
2023-12-14T00:55:48.881Z,997.44
2023-12-14T00:56:21.085Z,997.46
2023-12-14T00:56:48.884Z,997.46
2023-12-14T00:57:18.873Z,997.47
2023-12-14T00:57:48.884Z,997.49
2023-12-14T00:58:18.849Z,997.49
2023-12-14T00:58:51.939Z,997.51
2023-12-14T00:59:37.305Z,997.52
2023-12-14T00:59:48.938Z,997.51
2023-12-14T01:00:18.853Z,997.54
2023-12-14T01:00:48.810Z,997.55
2023-12-14T01:01:18.832Z,997.55
2023-12-14T01:01:48.850Z,997.59
2023-12-14T01:02:18.881Z,997.59
2023-12-14T01:02:48.831Z,997.59
2023-12-14T01:03:18.812Z,997.62
2023-12-14T01:03:48.785Z,997.62
2023-12-14T01:04:18.776Z,997.63
2023-12-14T01:04:51.872Z,997.65
2023-12-14T01:05:36.917Z,997.66
2023-12-14T01:05:48.778Z,997.67
2023-12-14T01:06:18.796Z,997.66
2023-12-14T01:06:48.751Z,997.67
2023-12-14T01:07:18.776Z,997.68
2023-12-14T01:07:48.779Z,997.69
2023-12-14T01:08:18.751Z,997.67
2023-12-14T01:08:48.742Z,997.67
2023-12-14T01:09:18.715Z,997.69
2023-12-14T01:09:48.728Z,997.72
2023-12-14T01:10:18.718Z,997.71
2023-12-14T01:10:51.780Z,997.71
2023-12-14T01:11:36.836Z,997.73
2023-12-14T01:11:48.768Z,997.74
2023-12-14T01:12:18.735Z,997.75
2023-12-14T01:12:48.702Z,997.76
2023-12-14T01:13:18.672Z,997.77
2023-12-14T01:13:48.697Z,997.78
2023-12-14T01:14:18.719Z,997.79
2023-12-14T01:14:48.689Z,997.81
2023-12-14T01:15:18.667Z,997.82
2023-12-14T01:15:48.649Z,997.82
2023-12-14T01:16:18.679Z,997.84
2023-12-14T01:16:51.790Z,997.84
2023-12-14T01:17:36.778Z,997.86
2023-12-14T01:17:49.689Z,997.85
2023-12-14T01:18:18.727Z,997.86
2023-12-14T01:18:48.699Z,997.87
2023-12-14T01:19:18.612Z,997.89
2023-12-14T01:19:48.647Z,997.91
2023-12-14T01:20:18.631Z,997.93
2023-12-14T01:20:48.603Z,997.94
2023-12-14T01:21:18.616Z,997.95
2023-12-14T01:21:48.594Z,997.97
2023-12-14T01:22:18.587Z,997.99
2023-12-14T01:22:52.519Z,998.01
2023-12-14T01:23:36.708Z,998.02
2023-12-14T01:23:48.558Z,998.03
2023-12-14T01:24:18.574Z,998.05
2023-12-14T01:24:48.603Z,998.06
2023-12-14T01:25:18.546Z,998.06
2023-12-14T01:25:48.574Z,998.07
2023-12-14T01:26:18.553Z,998.08
2023-12-14T01:26:48.549Z,998.08
2023-12-14T01:27:18.526Z,998.09
2023-12-14T01:27:48.518Z,998.09
2023-12-14T01:28:18.520Z,998.09
2023-12-14T01:28:51.629Z,998.10
2023-12-14T01:29:36.642Z,998.10
2023-12-14T01:29:48.497Z,998.10
2023-12-14T01:30:18.514Z,998.11
2023-12-14T01:30:48.535Z,998.12
2023-12-14T01:31:18.490Z,998.13
2023-12-14T01:31:48.501Z,998.16
2023-12-14T01:32:18.473Z,998.17
2023-12-14T01:32:48.498Z,998.19
2023-12-14T01:33:18.636Z,998.19
2023-12-14T01:33:48.463Z,998.19
2023-12-14T01:34:18.503Z,998.21
2023-12-14T01:34:51.561Z,998.22
2023-12-14T01:35:36.566Z,998.22
2023-12-14T01:35:48.439Z,998.24
2023-12-14T01:36:18.447Z,998.25
2023-12-14T01:36:48.452Z,998.27
2023-12-14T01:37:18.446Z,998.27
2023-12-14T01:37:48.523Z,998.29
2023-12-14T01:38:18.417Z,998.30
2023-12-14T01:38:48.417Z,998.31
2023-12-14T01:39:18.421Z,998.32
2023-12-14T01:39:48.427Z,998.33
2023-12-14T01:40:18.409Z,998.33
2023-12-14T01:40:51.469Z,998.35
2023-12-14T01:41:36.497Z,998.35
2023-12-14T01:41:48.384Z,998.34
2023-12-14T01:42:18.437Z,998.35
2023-12-14T01:42:48.371Z,998.35
2023-12-14T01:43:18.362Z,998.36
2023-12-14T01:43:48.483Z,998.38
2023-12-14T01:44:18.357Z,998.37
2023-12-14T01:44:48.358Z,998.38
2023-12-14T01:45:18.351Z,998.38
2023-12-14T01:45:48.319Z,998.39
2023-12-14T01:46:18.376Z,998.40
2023-12-14T01:46:51.380Z,998.42
2023-12-14T01:47:36.471Z,998.43
2023-12-14T01:47:48.354Z,998.44
2023-12-14T01:48:18.402Z,998.43
2023-12-14T01:48:48.307Z,998.45
2023-12-14T01:49:18.324Z,998.45
2023-12-14T01:49:48.316Z,998.46
2023-12-14T01:50:18.343Z,998.46
2023-12-14T01:50:48.299Z,998.48
2023-12-14T01:51:18.294Z,998.48
2023-12-14T01:51:48.963Z,998.50
2023-12-14T01:52:18.264Z,998.49
2023-12-14T01:52:51.322Z,998.50
2023-12-14T01:53:36.406Z,998.50
2023-12-14T01:53:48.275Z,998.51
2023-12-14T01:54:18.267Z,998.50
2023-12-14T01:54:48.259Z,998.50
2023-12-14T01:55:18.241Z,998.50
2023-12-14T01:55:48.263Z,998.50
2023-12-14T01:56:18.300Z,998.49
2023-12-14T01:56:48.223Z,998.49
2023-12-14T01:57:18.224Z,998.49
2023-12-14T01:57:48.206Z,998.49
2023-12-14T01:58:18.232Z,998.48
2023-12-14T01:58:51.279Z,998.49
2023-12-14T01:59:36.329Z,998.49
2023-12-14T01:59:48.194Z,998.49
2023-12-14T02:00:18.171Z,998.49
2023-12-14T02:00:48.216Z,998.49
2023-12-14T02:01:18.203Z,998.50
2023-12-14T02:01:48.205Z,998.50
2023-12-14T02:02:18.203Z,998.51
2023-12-14T02:02:48.204Z,998.51
2023-12-14T02:03:18.168Z,998.51
2023-12-14T02:03:48.181Z,998.51
2023-12-14T02:04:18.257Z,998.52
2023-12-14T02:04:51.268Z,998.52
2023-12-14T02:05:36.341Z,998.52
2023-12-14T02:05:48.187Z,998.53
2023-12-14T02:06:18.135Z,998.53
2023-12-14T02:06:48.155Z,998.54
2023-12-14T02:07:18.112Z,998.55
2023-12-14T02:07:48.143Z,998.56
2023-12-14T02:08:18.116Z,998.57
2023-12-14T02:08:48.100Z,998.59
2023-12-14T02:09:18.130Z,998.59
2023-12-14T02:09:48.080Z,998.61
2023-12-14T02:10:18.070Z,998.62
2023-12-14T02:10:51.132Z,998.64
2023-12-14T02:11:36.423Z,998.66
2023-12-14T02:11:48.192Z,998.66
2023-12-14T02:12:18.102Z,998.68
2023-12-14T02:12:48.052Z,998.70
2023-12-14T02:13:18.055Z,998.70
2023-12-14T02:13:48.101Z,998.72
2023-12-14T02:14:18.061Z,998.72
2023-12-14T02:14:48.033Z,998.74
2023-12-14T02:15:18.020Z,998.76
2023-12-14T02:15:48.009Z,998.77
2023-12-14T02:16:18.019Z,998.79
2023-12-14T02:16:51.055Z,998.79
2023-12-14T02:17:36.967Z,998.82
2023-12-14T02:17:48.090Z,998.82
2023-12-14T02:18:18.046Z,998.82
2023-12-14T02:18:48.013Z,998.83
2023-12-14T02:19:18.030Z,998.85
2023-12-14T02:19:47.997Z,998.86
2023-12-14T02:20:17.992Z,998.87
2023-12-14T02:20:47.985Z,998.89
2023-12-14T02:21:17.958Z,998.89
2023-12-14T02:21:47.984Z,998.91
2023-12-14T02:22:18.019Z,998.93
2023-12-14T02:22:50.974Z,998.95
2023-12-14T02:23:36.466Z,998.97
2023-12-14T02:23:47.945Z,998.98
2023-12-14T02:24:17.956Z,998.99
2023-12-14T02:24:47.920Z,999.01
2023-12-14T02:25:17.943Z,999.02
2023-12-14T02:25:47.935Z,999.02
2023-12-14T02:26:17.999Z,999.04
2023-12-14T02:27:01.978Z,999.04
2023-12-14T02:27:18.527Z,999.06
2023-12-14T02:27:47.882Z,999.05
2023-12-14T02:28:17.881Z,999.02
2023-12-14T02:28:50.946Z,999.04
2023-12-14T02:29:36.112Z,999.02
2023-12-14T02:29:47.881Z,999.01
2023-12-14T02:30:17.906Z,999.02
2023-12-14T02:30:47.889Z,999.02
2023-12-14T02:31:17.893Z,999.01
2023-12-14T02:31:47.880Z,999.01
2023-12-14T02:32:17.859Z,999.02
2023-12-14T02:32:47.843Z,999.01
2023-12-14T02:33:17.866Z,999.01
2023-12-14T02:33:47.874Z,999.01
2023-12-14T02:34:17.838Z,999.04
2023-12-14T02:34:50.857Z,999.05
2023-12-14T02:35:35.950Z,999.05
2023-12-14T02:35:47.823Z,999.05
2023-12-14T02:36:17.826Z,999.06
2023-12-14T02:36:47.789Z,999.05
2023-12-14T02:37:17.834Z,999.06
2023-12-14T02:37:47.882Z,999.07
2023-12-14T02:38:17.861Z,999.04
2023-12-14T02:38:47.899Z,999.04
2023-12-14T02:39:17.822Z,999.07
2023-12-14T02:39:47.767Z,999.06
2023-12-14T02:40:17.757Z,999.06
2023-12-14T02:40:50.800Z,999.06
2023-12-14T02:41:35.866Z,999.07
2023-12-14T02:41:47.792Z,999.07
2023-12-14T02:42:17.737Z,999.08
2023-12-14T02:42:47.723Z,999.08
2023-12-14T02:43:17.772Z,999.09
2023-12-14T02:43:47.746Z,999.09
2023-12-14T02:44:17.840Z,999.09
2023-12-14T02:44:47.790Z,999.10
2023-12-14T02:45:17.739Z,999.09
2023-12-14T02:45:47.717Z,999.09
2023-12-14T02:46:17.686Z,999.10
2023-12-14T02:46:51.009Z,999.09
2023-12-14T02:47:35.857Z,999.09
2023-12-14T02:47:47.696Z,999.09
2023-12-14T02:48:17.753Z,999.11
2023-12-14T02:48:47.663Z,999.11
2023-12-14T02:49:17.690Z,999.12
2023-12-14T02:49:47.708Z,999.13
2023-12-14T02:50:17.723Z,999.14
2023-12-14T02:50:47.629Z,999.14
2023-12-14T02:51:17.646Z,999.16
2023-12-14T02:51:47.612Z,999.17
2023-12-14T02:52:17.625Z,999.18
2023-12-14T02:52:50.672Z,999.20
2023-12-14T02:53:35.735Z,999.21
2023-12-14T02:53:47.602Z,999.21
2023-12-14T02:54:17.622Z,999.22
2023-12-14T02:54:47.615Z,999.23
2023-12-14T02:55:17.590Z,999.24
2023-12-14T02:55:47.606Z,999.24
2023-12-14T02:56:17.621Z,999.24
2023-12-14T02:56:47.614Z,999.25
2023-12-14T02:57:17.580Z,999.26
2023-12-14T02:57:47.567Z,999.27
2023-12-14T02:58:17.550Z,999.28
2023-12-14T02:58:50.592Z,999.29
2023-12-14T02:59:35.677Z,999.29
2023-12-14T02:59:47.565Z,999.31
2023-12-14T03:00:17.541Z,999.32
2023-12-14T03:00:47.561Z,999.31
2023-12-14T03:01:17.566Z,999.32
2023-12-14T03:01:47.590Z,999.33
2023-12-14T03:02:17.572Z,999.34
2023-12-14T03:02:47.505Z,999.33
2023-12-14T03:03:17.513Z,999.35
2023-12-14T03:03:47.575Z,999.36
2023-12-14T03:04:17.503Z,999.36
2023-12-14T03:04:50.529Z,999.36
2023-12-14T03:05:35.635Z,999.38
2023-12-14T03:05:47.498Z,999.38
2023-12-14T03:06:17.532Z,999.37
2023-12-14T03:06:47.475Z,999.38
2023-12-14T03:07:17.451Z,999.39
2023-12-14T03:07:47.472Z,999.41
2023-12-14T03:08:17.455Z,999.43
2023-12-14T03:08:47.509Z,999.42
2023-12-14T03:09:17.459Z,999.44
2023-12-14T03:09:47.423Z,999.44
2023-12-14T03:10:17.426Z,999.45
2023-12-14T03:10:50.509Z,999.45
2023-12-14T03:11:35.545Z,999.46
2023-12-14T03:11:47.422Z,999.46
2023-12-14T03:12:17.417Z,999.47
2023-12-14T03:12:47.405Z,999.48
2023-12-14T03:13:18.123Z,999.49
2023-12-14T03:13:48.631Z,999.49
2023-12-14T03:14:17.915Z,999.50
2023-12-14T03:14:47.848Z,999.52
2023-12-14T03:15:18.058Z,999.52
2023-12-14T03:15:48.046Z,999.53
2023-12-14T03:16:18.078Z,999.53
2023-12-14T03:16:50.420Z,999.50
2023-12-14T03:17:35.588Z,999.49
2023-12-14T03:17:48.084Z,999.48
2023-12-14T03:18:18.139Z,999.49
2023-12-14T03:18:48.085Z,999.49
2023-12-14T03:19:18.102Z,999.49
2023-12-14T03:19:48.561Z,999.48
2023-12-14T03:20:18.161Z,999.48
2023-12-14T03:20:47.676Z,999.48
2023-12-14T03:21:17.348Z,999.49
2023-12-14T03:21:48.062Z,999.49
2023-12-14T03:22:17.359Z,999.51
2023-12-14T03:22:50.350Z,999.51
2023-12-14T03:23:35.410Z,999.52
2023-12-14T03:23:47.367Z,999.52
2023-12-14T03:24:17.401Z,999.53
2023-12-14T03:24:47.328Z,999.54
2023-12-14T03:25:19.045Z,999.55
2023-12-14T03:25:47.333Z,999.56
2023-12-14T03:26:17.360Z,999.56
2023-12-14T03:26:47.246Z,999.57
2023-12-14T03:27:17.467Z,999.58
2023-12-14T03:27:47.263Z,999.58
2023-12-14T03:28:17.272Z,999.59
2023-12-14T03:28:50.876Z,999.59
2023-12-14T03:29:35.558Z,999.58
2023-12-14T03:29:47.217Z,999.58
2023-12-14T03:30:17.243Z,999.58
2023-12-14T03:30:47.294Z,999.59
2023-12-14T03:31:18.271Z,999.61
2023-12-14T03:31:47.308Z,999.61
2023-12-14T03:32:17.233Z,999.61
2023-12-14T03:32:47.261Z,999.63
2023-12-14T03:33:17.221Z,999.63
2023-12-14T03:33:47.301Z,999.65
2023-12-14T03:34:17.162Z,999.66
2023-12-14T03:34:50.232Z,999.69
2023-12-14T03:35:35.288Z,999.70
2023-12-14T03:35:47.169Z,999.71
2023-12-14T03:36:17.168Z,999.73
2023-12-14T03:36:47.158Z,999.74
2023-12-14T03:37:17.147Z,999.75
2023-12-14T03:37:47.164Z,999.76
2023-12-14T03:38:17.139Z,999.76
2023-12-14T03:38:47.164Z,999.76
2023-12-14T03:39:17.109Z,999.77
2023-12-14T03:39:47.123Z,999.77
2023-12-14T03:40:17.165Z,999.78
2023-12-14T03:40:50.173Z,999.77
2023-12-14T03:41:35.243Z,999.78
2023-12-14T03:41:47.088Z,999.78
2023-12-14T03:42:17.071Z,999.79
2023-12-14T03:42:47.087Z,999.79
2023-12-14T03:43:17.069Z,999.80
2023-12-14T03:43:47.097Z,999.80
2023-12-14T03:44:17.134Z,999.81
2023-12-14T03:44:47.067Z,999.81
2023-12-14T03:45:17.065Z,999.81
2023-12-14T03:45:47.095Z,999.81
2023-12-14T03:46:17.048Z,999.82
2023-12-14T03:46:50.107Z,999.82
2023-12-14T03:47:35.188Z,999.82
2023-12-14T03:47:47.066Z,999.82
2023-12-14T03:48:17.068Z,999.83
2023-12-14T03:48:47.078Z,999.82
2023-12-14T03:49:17.062Z,999.85
2023-12-14T03:49:47.053Z,999.85
2023-12-14T03:50:17.543Z,999.85
2023-12-14T03:50:47.103Z,999.86
2023-12-14T03:51:16.990Z,999.86
2023-12-14T03:51:47.050Z,999.87
2023-12-14T03:52:16.997Z,999.87
2023-12-14T03:52:50.028Z,999.88
2023-12-14T03:53:35.085Z,999.91
2023-12-14T03:53:47.005Z,999.91
2023-12-14T03:54:16.960Z,999.92
2023-12-14T03:54:46.993Z,999.93
2023-12-14T03:55:17.028Z,999.94
2023-12-14T03:55:47.017Z,999.95
2023-12-14T03:56:16.958Z,999.98
2023-12-14T03:56:46.948Z,999.98
2023-12-14T03:57:16.926Z,1000.00
2023-12-14T03:57:46.957Z,1000.00
2023-12-14T03:58:16.906Z,1000.02
2023-12-14T03:58:49.957Z,1000.03
2023-12-14T03:59:35.043Z,1000.03
2023-12-14T03:59:46.978Z,1000.04
2023-12-14T04:00:16.939Z,1000.04
2023-12-14T04:00:46.887Z,1000.05
2023-12-14T04:01:16.949Z,1000.06
2023-12-14T04:01:46.888Z,1000.07
2023-12-14T04:02:16.893Z,1000.08
2023-12-14T04:02:46.908Z,1000.09
2023-12-14T04:03:16.921Z,1000.09
2023-12-14T04:03:46.867Z,1000.10
2023-12-14T04:04:16.875Z,1000.11
2023-12-14T04:04:49.963Z,1000.13
2023-12-14T04:05:35.054Z,1000.13
2023-12-14T04:05:46.926Z,1000.14
2023-12-14T04:06:16.892Z,1000.15
2023-12-14T04:06:46.864Z,1000.16
2023-12-14T04:07:16.847Z,1000.16
2023-12-14T04:07:46.882Z,1000.16
2023-12-14T04:08:16.907Z,1000.17
2023-12-14T04:08:46.823Z,1000.17
2023-12-14T04:09:16.817Z,1000.17
2023-12-14T04:09:46.808Z,1000.16
2023-12-14T04:10:16.797Z,1000.18
2023-12-14T04:10:49.823Z,1000.17
2023-12-14T04:11:34.904Z,1000.19
2023-12-14T04:11:46.831Z,1000.19
2023-12-14T04:12:16.782Z,1000.19
2023-12-14T04:12:46.808Z,1000.19
2023-12-14T04:13:16.758Z,1000.20
2023-12-14T04:13:46.836Z,1000.18
2023-12-14T04:14:16.808Z,1000.17
2023-12-14T04:14:46.753Z,1000.17
2023-12-14T04:15:16.749Z,1000.16
2023-12-14T04:15:46.766Z,1000.15
2023-12-14T04:16:17.812Z,1000.15
2023-12-14T04:16:49.810Z,1000.13
2023-12-14T04:17:34.900Z,1000.12
2023-12-14T04:17:46.802Z,1000.12
2023-12-14T04:18:16.791Z,1000.12
2023-12-14T04:18:46.822Z,1000.13
2023-12-14T04:19:16.725Z,1000.14
2023-12-14T04:19:46.713Z,1000.15
2023-12-14T04:20:16.711Z,1000.16
2023-12-14T04:20:46.686Z,1000.18
2023-12-14T04:21:16.775Z,1000.20
2023-12-14T04:21:46.688Z,1000.22
2023-12-14T04:22:16.724Z,1000.24
2023-12-14T04:22:49.808Z,1000.26
2023-12-14T04:23:34.778Z,1000.29
2023-12-14T04:23:46.652Z,1000.29
2023-12-14T04:24:16.650Z,1000.31
2023-12-14T04:24:46.639Z,1000.33
2023-12-14T04:25:16.654Z,1000.34
2023-12-14T04:25:46.682Z,1000.36
2023-12-14T04:26:16.617Z,1000.38
2023-12-14T04:26:46.635Z,1000.40
2023-12-14T04:27:16.622Z,1000.43
2023-12-14T04:27:46.624Z,1000.44
2023-12-14T04:28:16.628Z,1000.47
2023-12-14T04:28:49.674Z,1000.47
2023-12-14T04:29:34.716Z,1000.50
2023-12-14T04:29:46.587Z,1000.51
2023-12-14T04:30:16.671Z,1000.52
2023-12-14T04:30:46.608Z,1000.54
2023-12-14T04:31:16.648Z,1000.55
2023-12-14T04:31:46.654Z,1000.57
2023-12-14T04:32:16.597Z,1000.59
2023-12-14T04:32:46.746Z,1000.60
2023-12-14T04:33:16.631Z,1000.61
2023-12-14T04:33:46.597Z,1000.62
2023-12-14T04:34:16.686Z,1000.63
2023-12-14T04:34:49.603Z,1000.65
2023-12-14T04:35:34.649Z,1000.67
2023-12-14T04:35:46.528Z,1000.67
2023-12-14T04:36:16.528Z,1000.68
2023-12-14T04:36:46.539Z,1000.69
2023-12-14T04:37:16.511Z,1000.71
2023-12-14T04:37:46.532Z,1000.72
2023-12-14T04:38:16.554Z,1000.73
2023-12-14T04:38:46.500Z,1000.74
2023-12-14T04:39:16.502Z,1000.75
2023-12-14T04:39:46.478Z,1000.76
2023-12-14T04:40:16.483Z,1000.76
2023-12-14T04:40:49.591Z,1000.77
2023-12-14T04:41:34.648Z,1000.76
2023-12-14T04:41:46.462Z,1000.78
2023-12-14T04:42:16.468Z,1000.77
2023-12-14T04:42:46.475Z,1000.78
2023-12-14T04:43:16.466Z,1000.79
2023-12-14T04:43:46.495Z,1000.80
2023-12-14T04:44:16.483Z,1000.82
2023-12-14T04:44:46.437Z,1000.82
2023-12-14T04:45:16.443Z,1000.82
2023-12-14T04:45:46.414Z,1000.83
2023-12-14T04:46:16.414Z,1000.83
2023-12-14T04:46:49.692Z,1000.84
2023-12-14T04:47:34.613Z,1000.85
2023-12-14T04:47:46.662Z,1000.85
2023-12-14T04:48:16.962Z,1000.86
2023-12-14T04:48:48.973Z,1000.88
2023-12-14T04:49:16.836Z,1000.89
2023-12-14T04:49:46.639Z,1000.92
2023-12-14T04:50:16.792Z,1000.92
2023-12-14T04:50:46.928Z,1000.95
2023-12-14T04:51:16.984Z,1000.95
2023-12-14T04:51:47.431Z,1000.97
2023-12-14T04:52:16.960Z,1000.97
2023-12-14T04:52:49.412Z,1000.98
2023-12-14T04:53:34.711Z,1000.98
2023-12-14T04:53:46.683Z,1000.99
2023-12-14T04:54:16.991Z,1000.99
2023-12-14T04:54:46.453Z,1000.99
2023-12-14T04:55:16.476Z,1001.00
2023-12-14T04:55:46.611Z,1001.01
2023-12-14T04:56:16.489Z,1001.00
2023-12-14T04:56:46.636Z,1001.01
2023-12-14T04:57:16.470Z,1001.01
2023-12-14T04:57:46.400Z,1001.01
2023-12-14T04:58:16.340Z,1001.02
2023-12-14T04:58:49.338Z,1001.02
2023-12-14T04:59:34.406Z,1001.03
2023-12-14T04:59:46.296Z,1001.04
2023-12-14T05:00:16.328Z,1001.03
2023-12-14T05:00:46.347Z,1001.03
2023-12-14T05:01:16.313Z,1001.05
2023-12-14T05:01:46.299Z,1001.06
2023-12-14T05:02:16.286Z,1001.07
2023-12-14T05:02:54.296Z,1001.08
2023-12-14T05:03:16.316Z,1001.10
2023-12-14T05:03:46.348Z,1001.10
2023-12-14T05:04:16.266Z,1001.11
2023-12-14T05:04:49.301Z,1001.13
2023-12-14T05:05:34.418Z,1001.14
2023-12-14T05:05:46.325Z,1001.14
2023-12-14T05:06:16.534Z,1001.15
2023-12-14T05:06:46.233Z,1001.14
2023-12-14T05:07:16.247Z,1001.15
2023-12-14T05:07:46.277Z,1001.16
2023-12-14T05:08:16.308Z,1001.16
2023-12-14T05:08:46.183Z,1001.16
2023-12-14T05:09:16.216Z,1001.17
2023-12-14T05:09:46.189Z,1001.18
2023-12-14T05:10:16.192Z,1001.18
2023-12-14T05:10:49.229Z,1001.19
2023-12-14T05:11:34.273Z,1001.20
2023-12-14T05:11:46.160Z,1001.20
2023-12-14T05:12:16.172Z,1001.21
2023-12-14T05:12:46.166Z,1001.21
2023-12-14T05:13:16.130Z,1001.21
2023-12-14T05:13:46.157Z,1001.23
2023-12-14T05:14:16.231Z,1001.23
2023-12-14T05:14:46.143Z,1001.23
2023-12-14T05:15:16.136Z,1001.24
2023-12-14T05:15:46.167Z,1001.25
2023-12-14T05:16:16.129Z,1001.25
2023-12-14T05:16:49.145Z,1001.26
2023-12-14T05:17:34.242Z,1001.27
2023-12-14T05:17:46.167Z,1001.27
2023-12-14T05:18:16.160Z,1001.28
2023-12-14T05:18:46.135Z,1001.28
2023-12-14T05:19:16.144Z,1001.29
2023-12-14T05:19:46.100Z,1001.29
2023-12-14T05:20:16.119Z,1001.30
2023-12-14T05:20:46.064Z,1001.30
2023-12-14T05:21:16.077Z,1001.30
2023-12-14T05:21:46.059Z,1001.31
2023-12-14T05:22:16.060Z,1001.31
2023-12-14T05:22:49.164Z,1001.32
2023-12-14T05:23:34.141Z,1001.33
2023-12-14T05:23:46.069Z,1001.33
2023-12-14T05:24:16.047Z,1001.33
2023-12-14T05:24:46.075Z,1001.36
2023-12-14T05:25:16.003Z,1001.37
2023-12-14T05:25:46.031Z,1001.38
2023-12-14T05:26:16.055Z,1001.39
2023-12-14T05:26:46.039Z,1001.40
2023-12-14T05:27:16.012Z,1001.40
2023-12-14T05:27:45.991Z,1001.42
2023-12-14T05:28:15.996Z,1001.43
2023-12-14T05:28:49.048Z,1001.43
2023-12-14T05:29:34.121Z,1001.43
2023-12-14T05:29:45.968Z,1001.43
2023-12-14T05:30:16.043Z,1001.44
2023-12-14T05:30:45.985Z,1001.44
2023-12-14T05:31:15.979Z,1001.44
2023-12-14T05:31:45.966Z,1001.44
2023-12-14T05:32:15.948Z,1001.44
2023-12-14T05:32:46.001Z,1001.44
2023-12-14T05:33:16.042Z,1001.44
2023-12-14T05:33:46.017Z,1001.44
2023-12-14T05:34:15.950Z,1001.45
2023-12-14T05:34:48.986Z,1001.45
2023-12-14T05:35:34.042Z,1001.46
2023-12-14T05:35:45.941Z,1001.46
2023-12-14T05:36:15.897Z,1001.48
2023-12-14T05:36:45.951Z,1001.49
2023-12-14T05:37:15.904Z,1001.50
2023-12-14T05:37:45.899Z,1001.52
2023-12-14T05:38:16.003Z,1001.52
2023-12-14T05:38:45.886Z,1001.53
2023-12-14T05:39:15.888Z,1001.54
2023-12-14T05:39:45.867Z,1001.54
2023-12-14T05:40:15.918Z,1001.54
2023-12-14T05:40:48.897Z,1001.54
2023-12-14T05:41:33.973Z,1001.54
2023-12-14T05:41:45.857Z,1001.54
2023-12-14T05:42:15.879Z,1001.55
2023-12-14T05:42:45.859Z,1001.55
2023-12-14T05:43:15.874Z,1001.55
2023-12-14T05:43:45.841Z,1001.56
2023-12-14T05:44:15.869Z,1001.57
2023-12-14T05:44:45.832Z,1001.58
2023-12-14T05:45:15.833Z,1001.59
2023-12-14T05:45:45.814Z,1001.61
2023-12-14T05:46:15.802Z,1001.62
2023-12-14T05:46:48.866Z,1001.64
2023-12-14T05:47:33.972Z,1001.66
2023-12-14T05:47:45.876Z,1001.68
2023-12-14T05:48:15.960Z,1001.70
2023-12-14T05:48:45.786Z,1001.72
2023-12-14T05:49:15.828Z,1001.74
2023-12-14T05:49:45.766Z,1001.76
2023-12-14T05:50:15.872Z,1001.77
2023-12-14T05:50:45.758Z,1001.76
2023-12-14T05:51:15.755Z,1001.81
2023-12-14T05:51:45.782Z,1001.82
2023-12-14T05:52:15.885Z,1001.83
2023-12-14T05:52:48.819Z,1001.84
2023-12-14T05:53:33.871Z,1001.87
2023-12-14T05:53:45.726Z,1001.87
2023-12-14T05:54:15.730Z,1001.85
2023-12-14T05:54:45.713Z,1001.89
2023-12-14T05:55:15.707Z,1001.90
2023-12-14T05:55:45.735Z,1001.92
2023-12-14T05:56:15.786Z,1001.93
2023-12-14T05:56:45.703Z,1001.94
2023-12-14T05:57:15.697Z,1001.95
2023-12-14T05:57:45.670Z,1001.95
2023-12-14T05:58:15.677Z,1001.96
2023-12-14T05:58:48.744Z,1001.96
2023-12-14T05:59:33.791Z,1001.96
2023-12-14T05:59:45.663Z,1001.96
2023-12-14T06:00:15.648Z,1001.96
2023-12-14T06:00:45.669Z,1001.96
2023-12-14T06:01:15.709Z,1001.95
2023-12-14T06:01:45.743Z,1001.94
2023-12-14T06:02:15.716Z,1001.96
2023-12-14T06:02:45.801Z,1001.97
2023-12-14T06:03:15.647Z,1001.97
2023-12-14T06:03:45.662Z,1001.95
2023-12-14T06:04:15.641Z,1001.97
2023-12-14T06:04:48.696Z,1001.96
2023-12-14T06:05:33.841Z,1001.97
2023-12-14T06:05:45.664Z,1001.95
2023-12-14T06:06:15.780Z,1001.94
2023-12-14T06:06:45.607Z,1001.94
2023-12-14T06:07:15.624Z,1001.95
2023-12-14T06:07:45.593Z,1001.94
2023-12-14T06:08:15.671Z,1001.95
2023-12-14T06:08:45.566Z,1001.96
2023-12-14T06:09:15.572Z,1001.95
2023-12-14T06:09:45.567Z,1001.97
2023-12-14T06:10:15.594Z,1001.98